sensor_id;sensor_type;location;lat;lon;timestamp;P1;durP1;ratioP1;P2;durP2;ratioP2
22549;SDS011;11441;57.164;-2.120;2023-03-23T00:02:44;16.70;;;4.15;;
22549;SDS011;11441;57.164;-2.120;2023-03-23T00:05:10;14.07;;;2.58;;
22549;SDS011;11441;57.164;-2.120;2023-03-23T00:07:36;15.43;;;3.35;;
22549;SDS011;11441;57.164;-2.120;2023-03-23T00:10:02;15.57;;;3.13;;
22549;SDS011;11441;57.164;-2.120;2023-03-23T00:15:15;14.60;;;2.95;;
22549;SDS011;11441;57.164;-2.120;2023-03-23T00:17:42;14.20;;;3.50;;
22549;SDS011;11441;57.164;-2.120;2023-03-23T00:20:10;10.80;;;3.17;;
22549;SDS011;11441;57.164;-2.120;2023-03-23T00:22:56;20.58;;;3.70;;
22549;SDS011;11441;57.164;-2.120;2023-03-23T00:25:25;20.15;;;3.83;;
22549;SDS011;11441;57.164;-2.120;2023-03-23T00:27:51;27.48;;;4.63;;
22549;SDS011;11441;57.164;-2.120;2023-03-23T00:30:17;18.23;;;3.83;;
22549;SDS011;11441;57.164;-2.120;2023-03-23T00:32:43;18.70;;;4.03;;
22549;SDS011;11441;57.164;-2.120;2023-03-23T00:35:27;22.45;;;4.10;;
22549;SDS011;11441;57.164;-2.120;2023-03-23T00:37:53;19.20;;;3.88;;
22549;SDS011;11441;57.164;-2.120;2023-03-23T00:40:20;20.17;;;3.40;;
22549;SDS011;11441;57.164;-2.120;2023-03-23T00:42:46;16.95;;;3.38;;
22549;SDS011;11441;57.164;-2.120;2023-03-23T00:45:13;15.52;;;3.55;;
22549;SDS011;11441;57.164;-2.120;2023-03-23T00:47:40;21.55;;;3.38;;
22549;SDS011;11441;57.164;-2.120;2023-03-23T00:50:12;16.13;;;2.78;;
22549;SDS011;11441;57.164;-2.120;2023-03-23T00:52:39;9.55;;;2.83;;
22549;SDS011;11441;57.164;-2.120;2023-03-23T00:55:06;11.30;;;2.28;;
22549;SDS011;11441;57.164;-2.120;2023-03-23T00:57:32;14.32;;;3.92;;
22549;SDS011;11441;57.164;-2.120;2023-03-23T00:59:58;12.55;;;2.25;;
22549;SDS011;11441;57.164;-2.120;2023-03-23T01:02:23;19.02;;;3.72;;
22549;SDS011;11441;57.164;-2.120;2023-03-23T01:04:52;18.48;;;3.17;;
22549;SDS011;11441;57.164;-2.120;2023-03-23T01:07:18;19.30;;;3.28;;
22549;SDS011;11441;57.164;-2.120;2023-03-23T01:09:46;14.30;;;3.47;;
22549;SDS011;11441;57.164;-2.120;2023-03-23T01:12:13;17.27;;;3.63;;
22549;SDS011;11441;57.164;-2.120;2023-03-23T01:14:40;16.98;;;2.78;;
22549;SDS011;11441;57.164;-2.120;2023-03-23T01:17:07;14.88;;;3.20;;
22549;SDS011;11441;57.164;-2.120;2023-03-23T01:19:51;23.33;;;3.58;;
22549;SDS011;11441;57.164;-2.120;2023-03-23T01:22:17;15.70;;;3.60;;
22549;SDS011;11441;57.164;-2.120;2023-03-23T01:24:43;10.77;;;2.78;;
22549;SDS011;11441;57.164;-2.120;2023-03-23T01:27:08;17.58;;;3.38;;
22549;SDS011;11441;57.164;-2.120;2023-03-23T01:29:34;15.23;;;2.45;;
22549;SDS011;11441;57.164;-2.120;2023-03-23T01:32:01;14.25;;;2.63;;
22549;SDS011;11441;57.164;-2.120;2023-03-23T01:37:13;15.80;;;2.42;;
22549;SDS011;11441;57.164;-2.120;2023-03-23T01:39:38;13.30;;;2.75;;
22549;SDS011;11441;57.164;-2.120;2023-03-23T01:42:04;21.05;;;3.42;;
22549;SDS011;11441;57.164;-2.120;2023-03-23T01:47:03;18.05;;;3.13;;
22549;SDS011;11441;57.164;-2.120;2023-03-23T01:49:31;29.50;;;4.32;;
22549;SDS011;11441;57.164;-2.120;2023-03-23T01:52:02;16.70;;;2.97;;
22549;SDS011;11441;57.164;-2.120;2023-03-23T01:54:32;25.10;;;3.65;;
22549;SDS011;11441;57.164;-2.120;2023-03-23T01:57:03;15.65;;;3.97;;
22549;SDS011;11441;57.164;-2.120;2023-03-23T01:59:33;20.25;;;3.53;;
22549;SDS011;11441;57.164;-2.120;2023-03-23T02:02:14;22.45;;;4.47;;
22549;SDS011;11441;57.164;-2.120;2023-03-23T02:04:41;23.85;;;3.65;;
22549;SDS011;11441;57.164;-2.120;2023-03-23T02:07:08;24.63;;;5.15;;
22549;SDS011;11441;57.164;-2.120;2023-03-23T02:09:35;19.15;;;3.50;;
22549;SDS011;11441;57.164;-2.120;2023-03-23T02:12:00;23.30;;;4.05;;
22549;SDS011;11441;57.164;-2.120;2023-03-23T02:14:26;23.20;;;4.32;;
22549;SDS011;11441;57.164;-2.120;2023-03-23T02:22:20;22.35;;;3.30;;
22549;SDS011;11441;57.164;-2.120;2023-03-23T02:30:57;19.90;;;2.92;;
22549;SDS011;11441;57.164;-2.120;2023-03-23T02:36:42;18.15;;;2.55;;
22549;SDS011;11441;57.164;-2.120;2023-03-23T02:39:14;22.35;;;3.50;;
22549;SDS011;11441;57.164;-2.120;2023-03-23T02:41:52;10.63;;;1.77;;
22549;SDS011;11441;57.164;-2.120;2023-03-23T02:44:22;12.60;;;1.90;;
22549;SDS011;11441;57.164;-2.120;2023-03-23T02:46:56;12.82;;;2.20;;
22549;SDS011;11441;57.164;-2.120;2023-03-23T02:49:25;10.80;;;2.42;;
22549;SDS011;11441;57.164;-2.120;2023-03-23T02:51:56;13.10;;;2.05;;
22549;SDS011;11441;57.164;-2.120;2023-03-23T02:54:25;6.80;;;1.33;;
22549;SDS011;11441;57.164;-2.120;2023-03-23T02:56:54;6.20;;;1.33;;
22549;SDS011;11441;57.164;-2.120;2023-03-23T02:59:26;7.90;;;1.38;;
22549;SDS011;11441;57.164;-2.120;2023-03-23T03:05:01;7.43;;;1.40;;
22549;SDS011;11441;57.164;-2.120;2023-03-23T03:07:34;4.05;;;1.08;;
22549;SDS011;11441;57.164;-2.120;2023-03-23T03:10:15;4.78;;;0.70;;
22549;SDS011;11441;57.164;-2.120;2023-03-23T03:13:01;3.50;;;0.88;;
22549;SDS011;11441;57.164;-2.120;2023-03-23T03:15:56;1.42;;;0.60;;
22549;SDS011;11441;57.164;-2.120;2023-03-23T03:19:28;2.08;;;0.57;;
22549;SDS011;11441;57.164;-2.120;2023-03-23T03:21:52;3.13;;;0.30;;
22549;SDS011;11441;57.164;-2.120;2023-03-23T03:24:25;3.72;;;0.30;;
22549;SDS011;11441;57.164;-2.120;2023-03-23T03:26:54;1.10;;;0.20;;
22549;SDS011;11441;57.164;-2.120;2023-03-23T03:29:33;0.77;;;0.10;;
22549;SDS011;11441;57.164;-2.120;2023-03-23T03:32:04;0.65;;;0.20;;
22549;SDS011;11441;57.164;-2.120;2023-03-23T03:34:33;1.08;;;0.10;;
22549;SDS011;11441;57.164;-2.120;2023-03-23T03:37:01;0.75;;;0.20;;
22549;SDS011;11441;57.164;-2.120;2023-03-23T03:39:33;0.90;;;0.20;;
22549;SDS011;11441;57.164;-2.120;2023-03-23T03:42:00;0.10;;;0.10;;
22549;SDS011;11441;57.164;-2.120;2023-03-23T03:44:26;0.52;;;0.20;;
22549;SDS011;11441;57.164;-2.120;2023-03-23T03:46:52;0.08;;;0.08;;
22549;SDS011;11441;57.164;-2.120;2023-03-23T03:49:17;0.10;;;0.10;;
22549;SDS011;11441;57.164;-2.120;2023-03-23T03:51:44;0.10;;;0.10;;
22549;SDS011;11441;57.164;-2.120;2023-03-23T03:54:18;0.10;;;0.10;;
22549;SDS011;11441;57.164;-2.120;2023-03-23T03:56:44;0.50;;;0.08;;
22549;SDS011;11441;57.164;-2.120;2023-03-23T03:59:31;0.10;;;0.10;;
22549;SDS011;11441;57.164;-2.120;2023-03-23T04:02:27;1.47;;;0.10;;
22549;SDS011;11441;57.164;-2.120;2023-03-23T04:04:54;0.20;;;0.10;;
22549;SDS011;11441;57.164;-2.120;2023-03-23T04:07:19;0.10;;;0.10;;
22549;SDS011;11441;57.164;-2.120;2023-03-23T04:09:48;0.10;;;0.10;;
22549;SDS011;11441;57.164;-2.120;2023-03-23T04:12:17;0.10;;;0.10;;
22549;SDS011;11441;57.164;-2.120;2023-03-23T04:14:54;0.63;;;0.20;;
22549;SDS011;11441;57.164;-2.120;2023-03-23T04:17:22;0.65;;;0.10;;
22549;SDS011;11441;57.164;-2.120;2023-03-23T04:19:51;0.10;;;0.10;;
22549;SDS011;11441;57.164;-2.120;2023-03-23T04:22:23;0.13;;;0.10;;
22549;SDS011;11441;57.164;-2.120;2023-03-23T04:24:57;0.10;;;0.10;;
22549;SDS011;11441;57.164;-2.120;2023-03-23T04:27:26;0.00;;;0.00;;
22549;SDS011;11441;57.164;-2.120;2023-03-23T04:29:56;0.10;;;0.10;;
22549;SDS011;11441;57.164;-2.120;2023-03-23T04:32:33;0.07;;;0.07;;
22549;SDS011;11441;57.164;-2.120;2023-03-23T04:34:59;0.10;;;0.10;;
22549;SDS011;11441;57.164;-2.120;2023-03-23T04:37:32;0.10;;;0.10;;
22549;SDS011;11441;57.164;-2.120;2023-03-23T04:40:00;0.20;;;0.10;;
22549;SDS011;11441;57.164;-2.120;2023-03-23T04:42:31;0.00;;;0.00;;
22549;SDS011;11441;57.164;-2.120;2023-03-23T04:45:23;0.10;;;0.10;;
22549;SDS011;11441;57.164;-2.120;2023-03-23T04:47:51;0.10;;;0.10;;
22549;SDS011;11441;57.164;-2.120;2023-03-23T04:53:22;0.03;;;0.03;;
22549;SDS011;11441;57.164;-2.120;2023-03-23T04:55:48;0.20;;;0.10;;
22549;SDS011;11441;57.164;-2.120;2023-03-23T04:58:16;0.10;;;0.10;;
22549;SDS011;11441;57.164;-2.120;2023-03-23T05:01:02;0.10;;;0.10;;
22549;SDS011;11441;57.164;-2.120;2023-03-23T05:03:30;0.00;;;0.00;;
22549;SDS011;11441;57.164;-2.120;2023-03-23T05:05:57;0.10;;;0.10;;
22549;SDS011;11441;57.164;-2.120;2023-03-23T05:08:23;0.43;;;0.10;;
22549;SDS011;11441;57.164;-2.120;2023-03-23T05:10:53;0.10;;;0.10;;
22549;SDS011;11441;57.164;-2.120;2023-03-23T05:13:22;0.10;;;0.10;;
22549;SDS011;11441;57.164;-2.120;2023-03-23T05:15:51;0.10;;;0.10;;
22549;SDS011;11441;57.164;-2.120;2023-03-23T05:18:17;0.10;;;0.10;;
22549;SDS011;11441;57.164;-2.120;2023-03-23T05:20:46;0.10;;;0.10;;
22549;SDS011;11441;57.164;-2.120;2023-03-23T05:23:18;0.10;;;0.10;;
22549;SDS011;11441;57.164;-2.120;2023-03-23T05:25:52;0.00;;;0.00;;
22549;SDS011;11441;57.164;-2.120;2023-03-23T05:28:19;0.10;;;0.10;;
22549;SDS011;11441;57.164;-2.120;2023-03-23T05:31:10;0.13;;;0.10;;
22549;SDS011;11441;57.164;-2.120;2023-03-23T05:36:43;0.00;;;0.00;;
22549;SDS011;11441;57.164;-2.120;2023-03-23T05:39:23;0.10;;;0.10;;
22549;SDS011;11441;57.164;-2.120;2023-03-23T05:42:09;0.10;;;0.10;;
22549;SDS011;11441;57.164;-2.120;2023-03-23T05:44:45;0.63;;;0.10;;
22549;SDS011;11441;57.164;-2.120;2023-03-23T05:47:10;0.27;;;0.10;;
22549;SDS011;11441;57.164;-2.120;2023-03-23T05:49:40;0.30;;;0.10;;
22549;SDS011;11441;57.164;-2.120;2023-03-23T05:52:09;0.10;;;0.10;;
22549;SDS011;11441;57.164;-2.120;2023-03-23T05:54:34;0.30;;;0.10;;
22549;SDS011;11441;57.164;-2.120;2023-03-23T05:57:01;0.10;;;0.10;;
22549;SDS011;11441;57.164;-2.120;2023-03-23T05:59:37;0.10;;;0.10;;
22549;SDS011;11441;57.164;-2.120;2023-03-23T06:02:21;0.10;;;0.10;;
22549;SDS011;11441;57.164;-2.120;2023-03-23T06:04:51;0.13;;;0.10;;
22549;SDS011;11441;57.164;-2.120;2023-03-23T06:07:27;0.10;;;0.10;;
22549;SDS011;11441;57.164;-2.120;2023-03-23T06:09:58;1.10;;;0.10;;
22549;SDS011;11441;57.164;-2.120;2023-03-23T06:12:25;0.13;;;0.10;;
22549;SDS011;11441;57.164;-2.120;2023-03-23T06:15:11;1.50;;;0.10;;
22549;SDS011;11441;57.164;-2.120;2023-03-23T06:18:16;0.43;;;0.10;;
22549;SDS011;11441;57.164;-2.120;2023-03-23T06:21:08;0.70;;;0.30;;
22549;SDS011;11441;57.164;-2.120;2023-03-23T06:24:14;0.10;;;0.10;;
22549;SDS011;11441;57.164;-2.120;2023-03-23T06:26:40;0.17;;;0.17;;
22549;SDS011;11441;57.164;-2.120;2023-03-23T06:29:14;3.07;;;0.30;;
22549;SDS011;11441;57.164;-2.120;2023-03-23T06:31:45;0.10;;;0.10;;
22549;SDS011;11441;57.164;-2.120;2023-03-23T06:34:14;0.67;;;0.20;;
22549;SDS011;11441;57.164;-2.120;2023-03-23T06:36:58;2.87;;;0.30;;
22549;SDS011;11441;57.164;-2.120;2023-03-23T06:39:51;0.30;;;0.30;;
22549;SDS011;11441;57.164;-2.120;2023-03-23T06:42:28;0.93;;;0.20;;
22549;SDS011;11441;57.164;-2.120;2023-03-23T06:45:13;1.37;;;0.20;;
22549;SDS011;11441;57.164;-2.120;2023-03-23T06:47:41;0.90;;;0.20;;
22549;SDS011;11441;57.164;-2.120;2023-03-23T06:50:07;2.00;;;0.20;;
22549;SDS011;11441;57.164;-2.120;2023-03-23T06:52:35;0.30;;;0.30;;
22549;SDS011;11441;57.164;-2.120;2023-03-23T06:55:00;2.73;;;0.40;;
22549;SDS011;11441;57.164;-2.120;2023-03-23T06:57:26;0.50;;;0.20;;
22549;SDS011;11441;57.164;-2.120;2023-03-23T06:59:52;0.90;;;0.10;;
22549;SDS011;11441;57.164;-2.120;2023-03-23T07:02:20;1.30;;;0.30;;
22549;SDS011;11441;57.164;-2.120;2023-03-23T07:04:49;1.10;;;0.17;;
22549;SDS011;11441;57.164;-2.120;2023-03-23T07:07:36;0.40;;;0.20;;
22549;SDS011;11441;57.164;-2.120;2023-03-23T07:10:20;0.87;;;0.10;;
22549;SDS011;11441;57.164;-2.120;2023-03-23T07:12:46;1.23;;;0.20;;
22549;SDS011;11441;57.164;-2.120;2023-03-23T07:15:12;1.30;;;0.20;;
22549;SDS011;11441;57.164;-2.120;2023-03-23T07:17:40;0.97;;;0.23;;
22549;SDS011;11441;57.164;-2.120;2023-03-23T07:20:26;1.07;;;0.50;;
22549;SDS011;11441;57.164;-2.120;2023-03-23T07:22:53;0.30;;;0.20;;
22549;SDS011;11441;57.164;-2.120;2023-03-23T07:25:37;0.30;;;0.30;;
22549;SDS011;11441;57.164;-2.120;2023-03-23T07:28:03;1.40;;;0.20;;
22549;SDS011;11441;57.164;-2.120;2023-03-23T07:30:29;1.08;;;0.20;;
22549;SDS011;11441;57.164;-2.120;2023-03-23T07:32:56;1.30;;;0.30;;
22549;SDS011;11441;57.164;-2.120;2023-03-23T07:35:23;1.33;;;0.20;;
22549;SDS011;11441;57.164;-2.120;2023-03-23T07:38:05;0.73;;;0.40;;
22549;SDS011;11441;57.164;-2.120;2023-03-23T07:40:32;0.80;;;0.20;;
22549;SDS011;11441;57.164;-2.120;2023-03-23T07:43:04;1.27;;;0.30;;
22549;SDS011;11441;57.164;-2.120;2023-03-23T07:45:54;2.13;;;0.53;;
22549;SDS011;11441;57.164;-2.120;2023-03-23T07:48:22;1.07;;;0.20;;
22549;SDS011;11441;57.164;-2.120;2023-03-23T07:50:50;2.97;;;0.70;;
22549;SDS011;11441;57.164;-2.120;2023-03-23T07:53:16;1.50;;;0.50;;
22549;SDS011;11441;57.164;-2.120;2023-03-23T07:55:47;0.45;;;0.20;;
22549;SDS011;11441;57.164;-2.120;2023-03-23T07:58:32;2.83;;;0.30;;
22549;SDS011;11441;57.164;-2.120;2023-03-23T08:01:17;1.43;;;0.27;;
22549;SDS011;11441;57.164;-2.120;2023-03-23T08:03:59;2.47;;;0.35;;
22549;SDS011;11441;57.164;-2.120;2023-03-23T08:06:34;0.43;;;0.20;;
22549;SDS011;11441;57.164;-2.120;2023-03-23T08:09:19;1.30;;;0.30;;
22549;SDS011;11441;57.164;-2.120;2023-03-23T08:12:04;0.28;;;0.20;;
22549;SDS011;11441;57.164;-2.120;2023-03-23T08:15:03;3.60;;;0.40;;
22549;SDS011;11441;57.164;-2.120;2023-03-23T08:17:45;1.80;;;0.30;;
22549;SDS011;11441;57.164;-2.120;2023-03-23T08:20:27;1.02;;;0.30;;
22549;SDS011;11441;57.164;-2.120;2023-03-23T08:23:13;2.20;;;0.40;;
22549;SDS011;11441;57.164;-2.120;2023-03-23T08:25:58;1.48;;;0.40;;
22549;SDS011;11441;57.164;-2.120;2023-03-23T08:28:25;2.45;;;0.65;;
22549;SDS011;11441;57.164;-2.120;2023-03-23T08:31:17;3.60;;;0.35;;
22549;SDS011;11441;57.164;-2.120;2023-03-23T08:33:58;2.40;;;0.50;;
22549;SDS011;11441;57.164;-2.120;2023-03-23T08:37:12;0.85;;;0.60;;
22549;SDS011;11441;57.164;-2.120;2023-03-23T08:39:56;2.13;;;0.25;;
22549;SDS011;11441;57.164;-2.120;2023-03-23T08:42:43;2.30;;;0.52;;
22549;SDS011;11441;57.164;-2.120;2023-03-23T08:45:47;0.98;;;0.30;;
22549;SDS011;11441;57.164;-2.120;2023-03-23T08:48:13;2.03;;;0.32;;
22549;SDS011;11441;57.164;-2.120;2023-03-23T08:53:58;3.15;;;0.77;;
22549;SDS011;11441;57.164;-2.120;2023-03-23T08:56:51;1.55;;;0.30;;
22549;SDS011;11441;57.164;-2.120;2023-03-23T08:59:38;2.20;;;0.57;;
22549;SDS011;11441;57.164;-2.120;2023-03-23T09:02:31;1.10;;;0.50;;
22549;SDS011;11441;57.164;-2.120;2023-03-23T09:05:13;4.40;;;0.38;;
22549;SDS011;11441;57.164;-2.120;2023-03-23T09:08:22;1.13;;;0.40;;
22549;SDS011;11441;57.164;-2.120;2023-03-23T09:10:47;6.10;;;0.65;;
22549;SDS011;11441;57.164;-2.120;2023-03-23T09:13:15;3.03;;;0.45;;
22549;SDS011;11441;57.164;-2.120;2023-03-23T09:15:40;2.83;;;0.60;;
22549;SDS011;11441;57.164;-2.120;2023-03-23T09:18:06;2.10;;;0.30;;
22549;SDS011;11441;57.164;-2.120;2023-03-23T09:20:32;1.63;;;0.40;;
22549;SDS011;11441;57.164;-2.120;2023-03-23T09:22:58;0.85;;;0.28;;
22549;SDS011;11441;57.164;-2.120;2023-03-23T09:25:25;1.60;;;0.30;;
22549;SDS011;11441;57.164;-2.120;2023-03-23T09:30:37;2.42;;;0.43;;
22549;SDS011;11441;57.164;-2.120;2023-03-23T09:33:04;3.67;;;0.63;;
22549;SDS011;11441;57.164;-2.120;2023-03-23T09:35:31;4.28;;;0.93;;
22549;SDS011;11441;57.164;-2.120;2023-03-23T09:37:59;2.38;;;0.60;;
22549;SDS011;11441;57.164;-2.120;2023-03-23T09:40:35;4.85;;;0.60;;
22549;SDS011;11441;57.164;-2.120;2023-03-23T09:56:42;1.02;;;0.30;;
22549;SDS011;11441;57.164;-2.120;2023-03-23T10:01:43;1.15;;;0.38;;
22549;SDS011;11441;57.164;-2.120;2023-03-23T10:07:22;8.18;;;0.52;;
22549;SDS011;11441;57.164;-2.120;2023-03-23T10:09:54;2.00;;;0.50;;
22549;SDS011;11441;57.164;-2.120;2023-03-23T10:12:30;5.97;;;0.85;;
22549;SDS011;11441;57.164;-2.120;2023-03-23T10:15:12;1.80;;;0.30;;
22549;SDS011;11441;57.164;-2.120;2023-03-23T10:17:46;0.98;;;0.38;;
22549;SDS011;11441;57.164;-2.120;2023-03-23T10:25:35;2.38;;;0.30;;
22549;SDS011;11441;57.164;-2.120;2023-03-23T10:28:13;1.52;;;0.32;;
22549;SDS011;11441;57.164;-2.120;2023-03-23T10:31:00;2.75;;;0.65;;
22549;SDS011;11441;57.164;-2.120;2023-03-23T10:33:40;2.67;;;0.55;;
22549;SDS011;11441;57.164;-2.120;2023-03-23T10:39:02;5.30;;;0.95;;
22549;SDS011;11441;57.164;-2.120;2023-03-23T10:41:44;0.50;;;0.40;;
22549;SDS011;11441;57.164;-2.120;2023-03-23T10:44:16;2.60;;;0.80;;
22549;SDS011;11441;57.164;-2.120;2023-03-23T10:46:45;2.75;;;0.40;;
22549;SDS011;11441;57.164;-2.120;2023-03-23T10:52:12;1.38;;;0.50;;
22549;SDS011;11441;57.164;-2.120;2023-03-23T10:54:46;1.70;;;0.50;;
22549;SDS011;11441;57.164;-2.120;2023-03-23T10:57:26;3.30;;;0.43;;
22549;SDS011;11441;57.164;-2.120;2023-03-23T11:00:39;0.98;;;0.30;;
22549;SDS011;11441;57.164;-2.120;2023-03-23T11:02:46;1.20;;;0.60;;
22549;SDS011;11441;57.164;-2.120;2023-03-23T11:05:25;0.60;;;0.35;;
22549;SDS011;11441;57.164;-2.120;2023-03-23T11:07:58;1.92;;;0.20;;
22549;SDS011;11441;57.164;-2.120;2023-03-23T11:10:40;0.50;;;0.28;;
22549;SDS011;11441;57.164;-2.120;2023-03-23T11:13:13;2.22;;;0.40;;
22549;SDS011;11441;57.164;-2.120;2023-03-23T11:15:42;2.65;;;0.50;;
22549;SDS011;11441;57.164;-2.120;2023-03-23T11:20:55;0.60;;;0.10;;
22549;SDS011;11441;57.164;-2.120;2023-03-23T11:29:04;1.52;;;0.30;;
22549;SDS011;11441;57.164;-2.120;2023-03-23T11:31:35;1.30;;;0.40;;
22549;SDS011;11441;57.164;-2.120;2023-03-23T11:34:04;1.80;;;0.60;;
22549;SDS011;11441;57.164;-2.120;2023-03-23T11:37:58;1.42;;;0.40;;
22549;SDS011;11441;57.164;-2.120;2023-03-23T11:50:35;1.08;;;0.55;;
22549;SDS011;11441;57.164;-2.120;2023-03-23T11:55:57;2.00;;;0.50;;
22549;SDS011;11441;57.164;-2.120;2023-03-23T11:58:31;0.50;;;0.30;;
22549;SDS011;11441;57.164;-2.120;2023-03-23T12:01:00;1.10;;;0.40;;
22549;SDS011;11441;57.164;-2.120;2023-03-23T12:09:58;1.08;;;0.40;;
22549;SDS011;11441;57.164;-2.120;2023-03-23T12:15:38;1.00;;;0.30;;
22549;SDS011;11441;57.164;-2.120;2023-03-23T12:23:24;2.72;;;0.47;;
22549;SDS011;11441;57.164;-2.120;2023-03-23T12:34:50;4.43;;;0.85;;
22549;SDS011;11441;57.164;-2.120;2023-03-23T12:42:58;3.13;;;0.43;;
22549;SDS011;11441;57.164;-2.120;2023-03-23T12:45:43;1.25;;;0.40;;
22549;SDS011;11441;57.164;-2.120;2023-03-23T12:48:35;2.35;;;0.50;;
22549;SDS011;11441;57.164;-2.120;2023-03-23T12:59:32;2.60;;;0.50;;
22549;SDS011;11441;57.164;-2.120;2023-03-23T13:02:30;2.72;;;0.50;;
22549;SDS011;11441;57.164;-2.120;2023-03-23T13:05:09;1.75;;;0.30;;
22549;SDS011;11441;57.164;-2.120;2023-03-23T13:07:50;2.83;;;0.30;;
22549;SDS011;11441;57.164;-2.120;2023-03-23T13:12:55;3.72;;;0.63;;
22549;SDS011;11441;57.164;-2.120;2023-03-23T13:15:56;1.98;;;0.73;;
22549;SDS011;11441;57.164;-2.120;2023-03-23T13:18:44;2.33;;;0.30;;
22549;SDS011;11441;57.164;-2.120;2023-03-23T13:21:54;1.27;;;0.30;;
22549;SDS011;11441;57.164;-2.120;2023-03-23T13:24:13;1.27;;;0.68;;
22549;SDS011;11441;57.164;-2.120;2023-03-23T13:26:43;2.95;;;0.32;;
22549;SDS011;11441;57.164;-2.120;2023-03-23T13:29:13;0.95;;;0.40;;
22549;SDS011;11441;57.164;-2.120;2023-03-23T13:31:44;2.88;;;0.30;;
22549;SDS011;11441;57.164;-2.120;2023-03-23T13:37:03;1.63;;;0.30;;
22549;SDS011;11441;57.164;-2.120;2023-03-23T13:39:37;1.30;;;0.50;;
22549;SDS011;11441;57.164;-2.120;2023-03-23T13:52:38;3.47;;;0.40;;
22549;SDS011;11441;57.164;-2.120;2023-03-23T13:55:20;1.02;;;0.28;;
22549;SDS011;11441;57.164;-2.120;2023-03-23T14:01:12;0.30;;;0.30;;
22549;SDS011;11441;57.164;-2.120;2023-03-23T14:03:42;1.55;;;0.50;;
22549;SDS011;11441;57.164;-2.120;2023-03-23T14:06:19;5.03;;;0.40;;
22549;SDS011;11441;57.164;-2.120;2023-03-23T14:14:26;4.28;;;0.43;;
22549;SDS011;11441;57.164;-2.120;2023-03-23T14:19:53;1.75;;;0.50;;
22549;SDS011;11441;57.164;-2.120;2023-03-23T14:22:37;1.77;;;0.65;;
22549;SDS011;11441;57.164;-2.120;2023-03-23T14:25:17;3.03;;;0.50;;
22549;SDS011;11441;57.164;-2.120;2023-03-23T14:27:46;3.70;;;0.40;;
22549;SDS011;11441;57.164;-2.120;2023-03-23T14:30:13;1.30;;;0.40;;
22549;SDS011;11441;57.164;-2.120;2023-03-23T14:32:41;4.28;;;0.95;;
22549;SDS011;11441;57.164;-2.120;2023-03-23T14:35:21;2.83;;;0.60;;
22549;SDS011;11441;57.164;-2.120;2023-03-23T14:37:47;2.28;;;1.02;;
22549;SDS011;11441;57.164;-2.120;2023-03-23T14:40:14;5.57;;;0.85;;
22549;SDS011;11441;57.164;-2.120;2023-03-23T14:42:42;3.08;;;0.90;;
22549;SDS011;11441;57.164;-2.120;2023-03-23T14:45:11;3.35;;;0.68;;
22549;SDS011;11441;57.164;-2.120;2023-03-23T14:47:42;4.45;;;1.13;;
22549;SDS011;11441;57.164;-2.120;2023-03-23T14:52:59;5.22;;;0.80;;
22549;SDS011;11441;57.164;-2.120;2023-03-23T14:55:30;1.08;;;0.70;;
22549;SDS011;11441;57.164;-2.120;2023-03-23T14:58:04;2.80;;;0.75;;
22549;SDS011;11441;57.164;-2.120;2023-03-23T15:00:41;7.00;;;1.55;;
22549;SDS011;11441;57.164;-2.120;2023-03-23T15:03:12;5.32;;;1.10;;
22549;SDS011;11441;57.164;-2.120;2023-03-23T15:08:45;7.10;;;1.15;;
22549;SDS011;11441;57.164;-2.120;2023-03-23T15:13:48;11.68;;;1.52;;
22549;SDS011;11441;57.164;-2.120;2023-03-23T15:16:37;7.88;;;1.45;;
22549;SDS011;11441;57.164;-2.120;2023-03-23T15:19:11;3.28;;;0.93;;
22549;SDS011;11441;57.164;-2.120;2023-03-23T15:24:36;6.22;;;1.67;;
22549;SDS011;11441;57.164;-2.120;2023-03-23T15:27:14;6.05;;;1.27;;
22549;SDS011;11441;57.164;-2.120;2023-03-23T15:29:46;7.18;;;1.10;;
22549;SDS011;11441;57.164;-2.120;2023-03-23T15:32:26;10.50;;;1.52;;
22549;SDS011;11441;57.164;-2.120;2023-03-23T15:34:57;7.85;;;1.73;;
22549;SDS011;11441;57.164;-2.120;2023-03-23T15:37:30;7.63;;;1.98;;
22549;SDS011;11441;57.164;-2.120;2023-03-23T15:39:57;4.72;;;1.15;;
22549;SDS011;11441;57.164;-2.120;2023-03-23T15:42:33;6.15;;;1.63;;
22549;SDS011;11441;57.164;-2.120;2023-03-23T15:45:22;7.35;;;0.95;;
22549;SDS011;11441;57.164;-2.120;2023-03-23T15:47:51;5.30;;;1.08;;
22549;SDS011;11441;57.164;-2.120;2023-03-23T15:50:39;4.22;;;0.93;;
22549;SDS011;11441;57.164;-2.120;2023-03-23T15:53:26;8.38;;;0.88;;
22549;SDS011;11441;57.164;-2.120;2023-03-23T15:56:03;4.75;;;0.65;;
22549;SDS011;11441;57.164;-2.120;2023-03-23T15:58:31;4.68;;;0.82;;
22549;SDS011;11441;57.164;-2.120;2023-03-23T16:00:59;6.75;;;1.30;;
22549;SDS011;11441;57.164;-2.120;2023-03-23T16:03:38;4.40;;;1.08;;
22549;SDS011;11441;57.164;-2.120;2023-03-23T16:06:30;3.90;;;0.80;;
22549;SDS011;11441;57.164;-2.120;2023-03-23T16:08:59;6.45;;;1.25;;
22549;SDS011;11441;57.164;-2.120;2023-03-23T16:11:27;8.32;;;1.48;;
22549;SDS011;11441;57.164;-2.120;2023-03-23T16:13:56;4.97;;;1.23;;
22549;SDS011;11441;57.164;-2.120;2023-03-23T16:16:25;9.15;;;1.48;;
22549;SDS011;11441;57.164;-2.120;2023-03-23T16:18:55;3.40;;;1.02;;
22549;SDS011;11441;57.164;-2.120;2023-03-23T16:21:21;8.50;;;1.27;;
22549;SDS011;11441;57.164;-2.120;2023-03-23T16:23:48;11.35;;;1.75;;
22549;SDS011;11441;57.164;-2.120;2023-03-23T16:26:15;10.10;;;1.75;;
22549;SDS011;11441;57.164;-2.120;2023-03-23T16:28:42;11.60;;;1.50;;
22549;SDS011;11441;57.164;-2.120;2023-03-23T16:31:09;6.55;;;1.10;;
22549;SDS011;11441;57.164;-2.120;2023-03-23T16:33:36;9.75;;;1.48;;
22549;SDS011;11441;57.164;-2.120;2023-03-23T16:36:03;7.65;;;1.05;;
22549;SDS011;11441;57.164;-2.120;2023-03-23T16:38:31;9.32;;;1.50;;
22549;SDS011;11441;57.164;-2.120;2023-03-23T16:41:14;5.97;;;1.15;;
22549;SDS011;11441;57.164;-2.120;2023-03-23T16:46:26;7.10;;;1.40;;
22549;SDS011;11441;57.164;-2.120;2023-03-23T16:48:54;2.70;;;0.65;;
22549;SDS011;11441;57.164;-2.120;2023-03-23T16:51:21;5.40;;;1.17;;
22549;SDS011;11441;57.164;-2.120;2023-03-23T16:53:48;5.45;;;1.25;;
22549;SDS011;11441;57.164;-2.120;2023-03-23T16:56:15;3.33;;;0.85;;
22549;SDS011;11441;57.164;-2.120;2023-03-23T16:58:42;4.95;;;1.20;;
22549;SDS011;11441;57.164;-2.120;2023-03-23T17:01:08;5.75;;;1.40;;
22549;SDS011;11441;57.164;-2.120;2023-03-23T17:03:36;7.65;;;1.60;;
22549;SDS011;11441;57.164;-2.120;2023-03-23T17:06:03;7.10;;;2.00;;
22549;SDS011;11441;57.164;-2.120;2023-03-23T17:08:31;6.80;;;2.00;;
22549;SDS011;11441;57.164;-2.120;2023-03-23T17:10:58;8.20;;;2.00;;
22549;SDS011;11441;57.164;-2.120;2023-03-23T17:13:25;7.75;;;1.38;;
22549;SDS011;11441;57.164;-2.120;2023-03-23T17:15:53;7.97;;;1.50;;
22549;SDS011;11441;57.164;-2.120;2023-03-23T17:18:22;6.85;;;0.85;;
22549;SDS011;11441;57.164;-2.120;2023-03-23T17:20:53;10.30;;;1.17;;
22549;SDS011;11441;57.164;-2.120;2023-03-23T17:23:20;9.18;;;1.40;;
22549;SDS011;11441;57.164;-2.120;2023-03-23T17:25:47;5.30;;;1.02;;
22549;SDS011;11441;57.164;-2.120;2023-03-23T17:28:15;5.88;;;1.35;;
22549;SDS011;11441;57.164;-2.120;2023-03-23T17:30:45;9.80;;;1.70;;
22549;SDS011;11441;57.164;-2.120;2023-03-23T17:33:12;2.67;;;1.20;;
22549;SDS011;11441;57.164;-2.120;2023-03-23T17:35:40;5.78;;;1.30;;
22549;SDS011;11441;57.164;-2.120;2023-03-23T17:38:08;7.22;;;2.05;;
22549;SDS011;11441;57.164;-2.120;2023-03-23T17:40:35;10.65;;;2.20;;
22549;SDS011;11441;57.164;-2.120;2023-03-23T17:43:02;6.75;;;1.17;;
22549;SDS011;11441;57.164;-2.120;2023-03-23T17:45:28;2.75;;;1.08;;
22549;SDS011;11441;57.164;-2.120;2023-03-23T17:47:55;4.18;;;1.20;;
22549;SDS011;11441;57.164;-2.120;2023-03-23T17:50:22;7.07;;;1.25;;
22549;SDS011;11441;57.164;-2.120;2023-03-23T17:52:49;7.10;;;1.83;;
22549;SDS011;11441;57.164;-2.120;2023-03-23T17:55:16;7.60;;;1.10;;
22549;SDS011;11441;57.164;-2.120;2023-03-23T17:57:43;7.68;;;1.70;;